createdAt,value
2018-08-16T04:00:39.955Z,0.00
2018-08-16T04:01:39.926Z,0.00
2018-08-16T04:02:39.886Z,5.62
2018-08-16T04:03:39.889Z,5.62
2018-08-16T04:04:39.855Z,5.62
2018-08-16T04:05:39.847Z,5.62
2018-08-16T04:06:39.909Z,5.62
2018-08-16T04:07:39.828Z,5.62
2018-08-16T04:08:39.816Z,5.62
2018-08-16T04:09:39.807Z,5.62
2018-08-16T04:10:39.787Z,5.62
2018-08-16T04:11:39.793Z,11.25
2018-08-16T04:12:39.766Z,11.25
2018-08-16T04:13:39.753Z,11.25
2018-08-16T04:14:39.742Z,11.25
2018-08-16T04:15:39.731Z,11.25
2018-08-16T04:16:39.753Z,11.25
2018-08-16T04:17:39.722Z,16.88
2018-08-16T04:18:39.700Z,16.88
2018-08-16T04:19:39.687Z,16.88
2018-08-16T04:20:39.723Z,16.88
2018-08-16T04:21:39.678Z,16.88
2018-08-16T04:22:39.673Z,16.88
2018-08-16T04:23:39.738Z,22.50
2018-08-16T04:24:39.642Z,22.50
2018-08-16T04:25:39.618Z,22.50
2018-08-16T04:26:39.635Z,22.50
2018-08-16T04:27:39.626Z,22.50
2018-08-16T04:28:39.587Z,22.50
2018-08-16T04:29:39.579Z,28.12
2018-08-16T04:30:39.566Z,28.12
2018-08-16T04:31:39.561Z,28.12
2018-08-16T04:32:39.543Z,28.12
2018-08-16T04:33:39.529Z,33.75
2018-08-16T04:34:39.568Z,33.75
2018-08-16T04:35:39.504Z,33.75
2018-08-16T04:36:39.506Z,33.75
2018-08-16T04:37:39.488Z,33.75
2018-08-16T04:38:39.475Z,39.38
2018-08-16T04:39:39.463Z,39.38
2018-08-16T04:40:39.454Z,39.38
2018-08-16T04:41:39.556Z,39.38
2018-08-16T04:42:39.433Z,39.38
2018-08-16T04:43:39.419Z,45.00
2018-08-16T04:44:39.405Z,45.00
2018-08-16T04:45:39.408Z,45.00
2018-08-16T04:46:39.413Z,45.00
2018-08-16T04:47:39.427Z,50.62
2018-08-16T04:48:39.428Z,50.62
2018-08-16T04:49:39.385Z,50.62
2018-08-16T04:50:39.347Z,50.62
2018-08-16T04:51:39.342Z,56.25
2018-08-16T04:52:39.316Z,56.25
2018-08-16T04:53:39.307Z,56.25
2018-08-16T04:54:39.304Z,56.25
2018-08-16T04:55:39.284Z,56.25
2018-08-16T04:56:39.285Z,61.88
2018-08-16T04:57:39.261Z,61.88
2018-08-16T04:58:39.250Z,61.88
2018-08-16T04:59:39.238Z,61.88
2018-08-16T05:00:39.229Z,67.50
2018-08-16T05:01:39.269Z,67.50
2018-08-16T05:02:39.207Z,67.50
2018-08-16T05:03:39.198Z,67.50
2018-08-16T05:04:39.190Z,67.50
2018-08-16T05:05:39.172Z,73.12
2018-08-16T05:06:39.172Z,73.12
2018-08-16T05:07:39.150Z,73.12
2018-08-16T05:08:39.137Z,73.12
2018-08-16T05:09:39.126Z,78.75
2018-08-16T05:10:39.115Z,78.75
2018-08-16T05:11:39.104Z,78.75
2018-08-16T05:12:39.114Z,78.75
2018-08-16T05:13:39.081Z,84.38
2018-08-16T05:14:39.069Z,84.38
2018-08-16T05:15:39.081Z,84.38
2018-08-16T05:16:39.047Z,84.38
2018-08-16T05:17:39.045Z,90.00
2018-08-16T05:18:39.025Z,90.00
2018-08-16T05:19:39.019Z,90.00
2018-08-16T05:20:39.024Z,95.62
2018-08-16T05:21:39.031Z,95.62
2018-08-16T05:22:39.018Z,95.62
2018-08-16T05:23:38.989Z,95.62
2018-08-16T05:24:38.967Z,101.25
2018-08-16T05:25:38.947Z,101.25
2018-08-16T05:26:38.940Z,101.25
2018-08-16T05:27:38.942Z,106.88
2018-08-16T05:28:38.946Z,106.88
2018-08-16T05:29:38.903Z,106.88
2018-08-16T05:30:38.891Z,106.88
2018-08-16T05:31:38.930Z,112.50
2018-08-16T05:32:38.910Z,112.50
2018-08-16T05:33:38.856Z,112.50
2018-08-16T05:34:38.852Z,112.50
2018-08-16T05:35:38.854Z,118.12
2018-08-16T05:36:38.823Z,118.12
2018-08-16T05:37:38.828Z,118.12
2018-08-16T05:38:38.804Z,123.75
2018-08-16T05:39:38.799Z,123.75
2018-08-16T05:40:38.781Z,123.75
2018-08-16T05:41:38.767Z,123.75
2018-08-16T05:42:38.786Z,129.38
2018-08-16T05:43:38.759Z,129.38
2018-08-16T05:44:38.735Z,129.38
2018-08-16T05:45:38.724Z,129.38
2018-08-16T05:46:38.713Z,135.00
2018-08-16T05:47:38.712Z,135.00
2018-08-16T05:48:38.692Z,135.00
2018-08-16T05:49:38.684Z,135.00
2018-08-16T05:50:38.715Z,135.00
2018-08-16T05:51:38.655Z,140.62
2018-08-16T05:52:38.656Z,140.62
2018-08-16T05:53:38.635Z,140.62
2018-08-16T05:54:38.640Z,146.25
2018-08-16T05:55:38.614Z,146.25
2018-08-16T05:56:38.603Z,146.25
2018-08-16T05:57:38.604Z,146.25
2018-08-16T05:58:38.579Z,151.88
2018-08-16T05:59:38.572Z,151.88
2018-08-16T06:00:38.583Z,151.88
2018-08-16T06:01:38.564Z,151.88
2018-08-16T06:02:38.577Z,157.50
2018-08-16T06:03:38.526Z,157.50
2018-08-16T06:04:38.546Z,157.50
2018-08-16T06:05:38.509Z,163.12
2018-08-16T06:06:38.494Z,163.12
2018-08-16T06:07:38.558Z,163.12
2018-08-16T06:08:38.469Z,163.12
2018-08-16T06:09:38.456Z,163.12
2018-08-16T06:10:38.451Z,168.75
2018-08-16T06:11:38.434Z,168.75
2018-08-16T06:12:38.483Z,168.75
2018-08-16T06:13:38.424Z,168.75
2018-08-16T06:14:38.407Z,174.38
2018-08-16T06:15:38.394Z,174.38
2018-08-16T06:16:38.401Z,180.00
2018-08-16T06:17:38.381Z,180.00
2018-08-16T06:18:38.358Z,196.88
2018-08-16T06:19:38.350Z,253.12
2018-08-16T06:20:38.335Z,315.00
2018-08-16T06:21:38.325Z,337.50
2018-08-16T06:22:38.323Z,343.12
2018-08-16T06:23:38.302Z,348.75
2018-08-16T06:24:38.291Z,348.75
2018-08-16T06:25:38.323Z,354.38
2018-08-16T06:26:38.266Z,360.00
2018-08-16T06:27:38.277Z,360.00
2018-08-16T06:28:38.284Z,365.62
2018-08-16T06:29:38.234Z,371.25
2018-08-16T06:30:38.248Z,371.25
2018-08-16T06:31:38.287Z,376.88
2018-08-16T06:32:38.232Z,376.88
2018-08-16T06:33:38.200Z,382.50
2018-08-16T06:34:38.201Z,388.12
2018-08-16T06:35:38.171Z,388.12
2018-08-16T06:36:38.157Z,393.75
2018-08-16T06:37:38.154Z,393.75
2018-08-16T06:38:38.136Z,399.38
2018-08-16T06:39:38.127Z,405.00
2018-08-16T06:40:38.116Z,405.00
2018-08-16T06:41:38.101Z,405.00
2018-08-16T06:42:38.102Z,410.62
2018-08-16T06:43:38.078Z,405.00
2018-08-16T06:44:38.069Z,399.38
2018-08-16T06:45:38.054Z,399.38
2018-08-16T06:46:38.050Z,416.25
2018-08-16T06:47:38.061Z,416.25
2018-08-16T06:48:38.020Z,416.25
2018-08-16T06:49:38.017Z,421.88
2018-08-16T06:50:38.003Z,427.50
2018-08-16T06:51:37.993Z,427.50
2018-08-16T06:52:38.050Z,433.12
2018-08-16T06:53:37.967Z,433.12
2018-08-16T06:54:38.012Z,438.75
2018-08-16T06:55:37.957Z,438.75
2018-08-16T06:56:37.938Z,438.75
2018-08-16T06:57:37.933Z,444.38
2018-08-16T06:58:37.918Z,450.00
2018-08-16T06:59:37.905Z,450.00
2018-08-16T07:00:37.887Z,455.62
2018-08-16T07:01:37.879Z,461.25
2018-08-16T07:02:37.878Z,461.25
2018-08-16T07:03:37.854Z,466.88
2018-08-16T07:04:37.845Z,466.88
2018-08-16T07:05:37.836Z,472.50
2018-08-16T07:06:37.827Z,472.50
2018-08-16T07:07:37.824Z,472.50
2018-08-16T07:08:37.801Z,478.12
2018-08-16T07:09:37.796Z,483.75
2018-08-16T07:10:37.783Z,489.38
2018-08-16T07:11:37.766Z,489.38
2018-08-16T07:12:37.879Z,495.00
2018-08-16T07:13:37.748Z,500.62
2018-08-16T07:14:37.733Z,506.25
2018-08-16T07:15:37.731Z,511.88
2018-08-16T07:16:37.711Z,517.50
2018-08-16T07:17:37.708Z,517.50
2018-08-16T07:18:37.731Z,523.12
2018-08-16T07:19:37.678Z,528.75
2018-08-16T07:20:37.668Z,534.38
2018-08-16T07:21:37.657Z,534.38
2018-08-16T07:22:37.645Z,540.00
2018-08-16T07:23:37.659Z,545.62
2018-08-16T07:24:37.648Z,551.25
2018-08-16T07:25:37.614Z,556.88
2018-08-16T07:26:37.610Z,556.88
2018-08-16T07:27:37.592Z,568.12
2018-08-16T07:28:37.594Z,562.50
2018-08-16T07:29:37.575Z,568.12
2018-08-16T07:30:37.562Z,568.12
2018-08-16T07:31:37.551Z,579.38
2018-08-16T07:32:37.536Z,579.38
2018-08-16T07:33:37.543Z,585.00
2018-08-16T07:34:37.517Z,596.25
2018-08-16T07:35:37.503Z,596.25
2018-08-16T07:36:37.490Z,601.88
2018-08-16T07:37:37.484Z,618.75
2018-08-16T07:38:37.483Z,708.75
2018-08-16T07:39:37.460Z,1321.88
2018-08-16T07:40:37.451Z,1867.50
2018-08-16T07:41:37.443Z,1935.00
2018-08-16T07:42:37.426Z,1957.50
2018-08-16T07:43:37.425Z,1974.38
2018-08-16T07:44:37.403Z,1980.00
2018-08-16T07:45:37.591Z,1974.38
2018-08-16T07:46:37.381Z,1996.88
2018-08-16T07:47:37.370Z,2013.75
2018-08-16T07:48:37.367Z,1575.00
2018-08-16T07:49:37.366Z,787.50
2018-08-16T07:50:37.341Z,663.75
2018-08-16T07:51:37.509Z,708.75
2018-08-16T07:52:37.314Z,1091.25
2018-08-16T07:53:37.324Z,1614.38
2018-08-16T07:54:37.296Z,2047.50
2018-08-16T07:55:37.288Z,1766.25
2018-08-16T07:56:37.273Z,1074.38
2018-08-16T07:57:37.264Z,742.50
2018-08-16T07:58:37.259Z,708.75
2018-08-16T07:59:37.309Z,697.50
2018-08-16T08:00:37.227Z,691.88
2018-08-16T08:01:37.271Z,680.62
2018-08-16T08:02:37.316Z,675.00
2018-08-16T08:03:37.386Z,669.38
2018-08-16T08:04:37.189Z,675.00
2018-08-16T08:05:37.173Z,669.38
2018-08-16T08:06:37.161Z,669.38
2018-08-16T08:07:37.150Z,675.00
2018-08-16T08:08:37.148Z,686.25
2018-08-16T08:09:37.308Z,742.50
2018-08-16T08:10:37.123Z,888.75
2018-08-16T08:11:37.107Z,945.00
2018-08-16T08:12:37.097Z,967.50
2018-08-16T08:13:37.095Z,1293.75
2018-08-16T08:14:37.073Z,1940.62
2018-08-16T08:15:37.146Z,1861.88
2018-08-16T08:16:37.060Z,1288.12
2018-08-16T08:17:37.045Z,1125.00
2018-08-16T08:18:37.044Z,1102.50
2018-08-16T08:19:37.020Z,1164.38
2018-08-16T08:20:37.028Z,1783.12
2018-08-16T08:21:36.997Z,2722.50
2018-08-16T08:22:36.985Z,2823.75
2018-08-16T08:23:36.986Z,2683.12
2018-08-16T08:24:36.967Z,2548.12
2018-08-16T08:25:36.962Z,2373.75
2018-08-16T08:26:36.944Z,2058.75
2018-08-16T08:27:36.934Z,1546.88
2018-08-16T08:28:36.935Z,1372.50
2018-08-16T08:29:36.918Z,1361.25
2018-08-16T08:30:36.905Z,1704.38
2018-08-16T08:31:36.949Z,2368.12
2018-08-16T08:32:36.926Z,2615.62
2018-08-16T08:33:36.885Z,2610.00
2018-08-16T08:34:36.855Z,2407.50
2018-08-16T08:35:36.847Z,2334.38
2018-08-16T08:36:36.835Z,2278.12
2018-08-16T08:37:36.825Z,2818.12
2018-08-16T08:38:36.902Z,3498.75
2018-08-16T08:39:36.803Z,3661.88
2018-08-16T08:40:36.788Z,3729.38
2018-08-16T08:41:36.779Z,3757.50
2018-08-16T08:42:36.773Z,3735.00
2018-08-16T08:43:36.769Z,3751.88
2018-08-16T08:44:36.750Z,3847.50
2018-08-16T08:45:36.738Z,3796.88
2018-08-16T08:46:36.726Z,3841.88
2018-08-16T08:47:36.716Z,3898.12
2018-08-16T08:48:36.725Z,3920.62
2018-08-16T08:49:36.694Z,3915.00
2018-08-16T08:50:36.684Z,3988.12
2018-08-16T08:51:36.672Z,4010.62
2018-08-16T08:52:36.658Z,3965.62
2018-08-16T08:53:36.664Z,4010.62
2018-08-16T08:54:36.641Z,4072.50
2018-08-16T08:55:36.630Z,3875.62
2018-08-16T08:56:36.622Z,3909.38
2018-08-16T08:57:36.603Z,4050.00
2018-08-16T08:58:36.642Z,4151.25
2018-08-16T08:59:36.590Z,3650.62
2018-08-16T09:00:36.578Z,3470.62
2018-08-16T09:01:36.566Z,3245.62
2018-08-16T09:02:36.548Z,3453.75
2018-08-16T09:03:36.549Z,3465.00
2018-08-16T09:04:36.536Z,3470.62
2018-08-16T09:05:36.552Z,3515.62
2018-08-16T09:06:36.506Z,3510.00
2018-08-16T09:07:36.495Z,3515.62
2018-08-16T09:08:36.495Z,3555.00
2018-08-16T09:09:36.471Z,3588.75
2018-08-16T09:10:36.463Z,3571.88
2018-08-16T09:11:36.454Z,3594.38
2018-08-16T09:12:36.439Z,3628.12
2018-08-16T09:13:36.470Z,3656.25
2018-08-16T09:14:36.431Z,3673.12
2018-08-16T09:15:36.408Z,3656.25
2018-08-16T09:16:36.517Z,3661.88
2018-08-16T09:17:36.411Z,3656.25
2018-08-16T09:18:36.404Z,3678.75
2018-08-16T09:19:36.371Z,3667.50
2018-08-16T09:20:36.353Z,3645.00
2018-08-16T09:21:36.340Z,3639.38
2018-08-16T09:22:36.331Z,3622.50
2018-08-16T09:23:36.319Z,3639.38
2018-08-16T09:24:36.325Z,3650.62
2018-08-16T09:25:36.408Z,3650.62
2018-08-16T09:26:36.288Z,3633.75
2018-08-16T09:27:36.284Z,3633.75
2018-08-16T09:28:36.267Z,3639.38
2018-08-16T09:29:36.285Z,3622.50
2018-08-16T09:30:36.243Z,3628.12
2018-08-16T09:31:36.309Z,3656.25
2018-08-16T09:32:36.227Z,3673.12
2018-08-16T09:33:36.214Z,3673.12
2018-08-16T09:34:36.211Z,3667.50
2018-08-16T09:35:36.189Z,3633.75
2018-08-16T09:36:36.180Z,3639.38
2018-08-16T09:37:36.169Z,3667.50
2018-08-16T09:38:36.170Z,3650.62
2018-08-16T09:39:36.230Z,3633.75
2018-08-16T09:40:36.138Z,3656.25
2018-08-16T09:41:36.128Z,3650.62
2018-08-16T09:42:36.111Z,3678.75
2018-08-16T09:43:36.107Z,3656.25
2018-08-16T09:44:36.103Z,3673.12
2018-08-16T09:45:36.174Z,3690.00
2018-08-16T09:46:36.069Z,3667.50
2018-08-16T09:47:36.061Z,3667.50
2018-08-16T09:48:36.047Z,3667.50
2018-08-16T09:49:36.054Z,3684.38
2018-08-16T09:50:36.025Z,3667.50
2018-08-16T09:51:36.124Z,3678.75
2018-08-16T09:52:36.007Z,3684.38
2018-08-16T09:53:35.994Z,3673.12
2018-08-16T09:54:35.992Z,3678.75
2018-08-16T09:55:35.973Z,3701.25
2018-08-16T09:56:35.961Z,3729.38
2018-08-16T09:57:35.955Z,3723.75
2018-08-16T09:58:35.942Z,3718.12
2018-08-16T09:59:35.949Z,3729.38
2018-08-16T10:00:35.924Z,3560.62
2018-08-16T10:01:35.906Z,1856.25
2018-08-16T10:02:35.899Z,495.00
2018-08-16T10:03:35.893Z,427.50
2018-08-16T10:04:35.897Z,399.38
2018-08-16T10:05:35.871Z,382.50
2018-08-16T10:06:35.867Z,376.88
2018-08-16T10:07:35.844Z,365.62
2018-08-16T10:08:35.836Z,371.25
2018-08-16T10:09:35.837Z,365.62
2018-08-16T10:10:35.811Z,360.00
2018-08-16T10:11:35.804Z,354.38
2018-08-16T10:12:35.789Z,348.75
2018-08-16T10:13:35.917Z,343.12
2018-08-16T10:14:35.793Z,343.12
2018-08-16T10:15:35.756Z,343.12
2018-08-16T10:16:35.749Z,337.50
2018-08-16T10:17:35.737Z,337.50
2018-08-16T10:18:35.725Z,331.88
2018-08-16T10:19:35.726Z,331.88
2018-08-16T10:20:35.696Z,331.88
2018-08-16T10:21:35.687Z,331.88
2018-08-16T10:22:35.678Z,326.25
2018-08-16T10:23:35.675Z,326.25
2018-08-16T10:24:35.676Z,320.62
2018-08-16T10:25:35.734Z,320.62
2018-08-16T10:26:35.641Z,320.62
2018-08-16T10:27:35.624Z,315.00
2018-08-16T10:28:35.616Z,315.00
2018-08-16T10:29:35.622Z,315.00
2018-08-16T10:30:35.594Z,315.00
2018-08-16T10:31:35.588Z,315.00
2018-08-16T10:32:35.573Z,309.38
2018-08-16T10:33:35.565Z,320.62
2018-08-16T10:34:35.560Z,309.38
2018-08-16T10:35:35.538Z,309.38
2018-08-16T10:36:35.529Z,303.75
2018-08-16T10:37:35.512Z,303.75
2018-08-16T10:38:35.510Z,303.75
2018-08-16T10:39:35.503Z,303.75
2018-08-16T10:40:35.481Z,303.75
2018-08-16T10:41:35.472Z,298.12
2018-08-16T10:42:35.459Z,298.12
2018-08-16T10:43:35.454Z,298.12
2018-08-16T10:44:35.483Z,298.12
2018-08-16T10:45:35.446Z,298.12
2018-08-16T10:46:35.423Z,298.12
2018-08-16T10:47:35.407Z,298.12
2018-08-16T10:48:35.397Z,298.12
2018-08-16T10:49:35.399Z,298.12
2018-08-16T10:50:35.372Z,292.50
2018-08-16T10:51:35.372Z,292.50
2018-08-16T10:52:35.358Z,292.50
2018-08-16T10:53:35.340Z,286.88
2018-08-16T10:54:35.341Z,286.88
2018-08-16T10:55:35.317Z,286.88
2018-08-16T10:56:35.308Z,286.88
2018-08-16T10:57:35.297Z,286.88
2018-08-16T10:58:35.346Z,286.88
2018-08-16T10:59:35.290Z,286.88
2018-08-16T11:00:35.263Z,281.25
2018-08-16T11:01:35.253Z,281.25
2018-08-16T11:02:35.245Z,281.25
2018-08-16T11:03:35.232Z,281.25
2018-08-16T11:04:35.232Z,281.25
2018-08-16T11:05:35.208Z,275.62
2018-08-16T11:06:35.221Z,275.62
2018-08-16T11:07:35.269Z,275.62
2018-08-16T11:08:35.180Z,275.62
2018-08-16T11:09:35.177Z,270.00
2018-08-16T11:10:35.268Z,270.00
2018-08-16T11:11:35.153Z,270.00
2018-08-16T11:12:35.132Z,270.00
2018-08-16T11:13:35.129Z,270.00
2018-08-16T11:14:35.119Z,270.00
2018-08-16T11:15:35.101Z,270.00
2018-08-16T11:16:35.091Z,270.00
2018-08-16T11:17:35.080Z,275.62
2018-08-16T11:18:35.070Z,270.00
2018-08-16T11:19:35.081Z,270.00
2018-08-16T11:20:35.044Z,270.00
2018-08-16T11:21:35.035Z,264.38
2018-08-16T11:22:35.024Z,264.38
2018-08-16T11:23:35.016Z,264.38
2018-08-16T11:24:35.010Z,264.38
2018-08-16T11:25:35.004Z,264.38
2018-08-16T11:26:34.979Z,258.75
2018-08-16T11:27:34.972Z,258.75
2018-08-16T11:28:34.959Z,258.75
2018-08-16T11:29:34.948Z,258.75
2018-08-16T11:30:34.946Z,253.12
2018-08-16T11:31:34.926Z,253.12
2018-08-16T11:32:34.916Z,253.12
2018-08-16T11:33:34.906Z,253.12
2018-08-16T11:34:34.897Z,253.12
2018-08-16T11:35:34.894Z,247.50
2018-08-16T11:36:34.872Z,247.50
2018-08-16T11:37:34.863Z,247.50
2018-08-16T11:38:34.852Z,247.50
2018-08-16T11:39:34.840Z,247.50
2018-08-16T11:40:34.842Z,247.50
2018-08-16T11:41:34.816Z,247.50
2018-08-16T11:42:34.812Z,247.50
2018-08-16T11:43:34.798Z,241.88
2018-08-16T11:44:34.785Z,241.88
2018-08-16T11:45:34.785Z,241.88
2018-08-16T11:46:34.798Z,241.88
2018-08-16T11:47:34.754Z,236.25
2018-08-16T11:48:34.741Z,236.25
2018-08-16T11:49:34.732Z,236.25
2018-08-16T11:50:34.730Z,236.25
2018-08-16T11:51:34.715Z,236.25
2018-08-16T11:52:34.705Z,230.62
2018-08-16T11:53:34.689Z,230.62
2018-08-16T11:54:34.678Z,230.62
2018-08-16T11:55:34.678Z,230.62
2018-08-16T11:56:34.655Z,230.62
2018-08-16T11:57:34.645Z,230.62
2018-08-16T11:58:34.636Z,230.62
2018-08-16T11:59:34.625Z,230.62
2018-08-16T12:00:34.624Z,225.00
2018-08-16T12:01:34.603Z,225.00
2018-08-16T12:02:34.592Z,230.62
2018-08-16T12:03:34.581Z,230.62
2018-08-16T12:04:34.569Z,230.62
2018-08-16T12:05:34.569Z,219.38
2018-08-16T12:06:34.548Z,219.38
2018-08-16T12:07:34.539Z,225.00
2018-08-16T12:08:34.526Z,219.38
2018-08-16T12:09:34.514Z,219.38
2018-08-16T12:10:34.516Z,219.38
2018-08-16T12:11:34.494Z,219.38
2018-08-16T12:12:34.481Z,219.38
2018-08-16T12:13:34.470Z,219.38
2018-08-16T12:14:34.492Z,219.38
2018-08-16T12:15:34.466Z,219.38
2018-08-16T12:16:34.440Z,219.38
2018-08-16T12:17:34.431Z,225.00
2018-08-16T12:18:34.421Z,219.38
2018-08-16T12:19:34.405Z,213.75
2018-08-16T12:20:34.411Z,213.75
2018-08-16T12:21:34.385Z,213.75
2018-08-16T12:22:34.377Z,213.75
2018-08-16T12:23:34.363Z,213.75
2018-08-16T12:24:34.355Z,213.75
2018-08-16T12:25:34.352Z,208.12
2018-08-16T12:26:34.333Z,208.12
2018-08-16T12:27:34.322Z,202.50
2018-08-16T12:28:34.309Z,202.50
2018-08-16T12:29:34.314Z,202.50
2018-08-16T12:30:34.298Z,202.50
2018-08-16T12:31:34.277Z,202.50
2018-08-16T12:32:34.271Z,202.50
2018-08-16T12:33:34.256Z,202.50
2018-08-16T12:34:34.245Z,202.50
2018-08-16T12:35:34.243Z,202.50
2018-08-16T12:36:34.222Z,202.50
2018-08-16T12:37:34.214Z,202.50
2018-08-16T12:38:34.205Z,196.88
2018-08-16T12:39:34.192Z,196.88
2018-08-16T12:40:34.380Z,196.88
2018-08-16T12:41:34.175Z,196.88
2018-08-16T12:42:34.158Z,196.88
2018-08-16T12:43:34.149Z,202.50
2018-08-16T12:44:34.135Z,208.12
2018-08-16T12:45:34.162Z,213.75
2018-08-16T12:46:34.118Z,219.38
2018-08-16T12:47:34.166Z,219.38
2018-08-16T12:48:34.092Z,213.75
2018-08-16T12:49:34.085Z,208.12
2018-08-16T12:50:34.079Z,208.12
2018-08-16T12:51:34.059Z,202.50
2018-08-16T12:52:34.051Z,213.75
2018-08-16T12:53:34.113Z,219.38
2018-08-16T12:54:34.032Z,213.75
2018-08-16T12:55:34.029Z,219.38
2018-08-16T12:56:34.007Z,213.75
2018-08-16T12:57:33.995Z,208.12
2018-08-16T12:58:33.989Z,208.12
2018-08-16T12:59:33.980Z,213.75
2018-08-16T13:00:33.976Z,219.38
2018-08-16T13:01:33.952Z,225.00
2018-08-16T13:02:33.944Z,241.88
2018-08-16T13:03:33.928Z,264.38
2018-08-16T13:04:33.918Z,281.25
2018-08-16T13:05:33.917Z,292.50
2018-08-16T13:06:33.898Z,281.25
2018-08-16T13:07:33.889Z,292.50
2018-08-16T13:08:33.884Z,320.62
2018-08-16T13:09:33.871Z,337.50
2018-08-16T13:10:33.868Z,348.75
2018-08-16T13:11:33.841Z,253.12
2018-08-16T13:12:33.833Z,360.00
2018-08-16T13:13:33.909Z,354.38
2018-08-16T13:14:33.850Z,360.00
2018-08-16T13:15:33.899Z,365.62
2018-08-16T13:16:33.791Z,354.38
2018-08-16T13:17:33.779Z,354.38
2018-08-16T13:18:33.771Z,337.50
2018-08-16T13:19:33.799Z,309.38
2018-08-16T13:20:33.859Z,292.50
2018-08-16T13:21:33.734Z,281.25
2018-08-16T13:22:33.726Z,286.88
2018-08-16T13:23:33.718Z,298.12
2018-08-16T13:24:33.701Z,309.38
2018-08-16T13:25:33.692Z,315.00
2018-08-16T13:26:33.697Z,326.25
2018-08-16T13:27:33.765Z,331.88
2018-08-16T13:28:33.661Z,320.62
2018-08-16T13:29:33.649Z,309.38
2018-08-16T13:30:33.772Z,320.62
2018-08-16T13:31:33.638Z,331.88
2018-08-16T13:32:33.619Z,337.50
2018-08-16T13:33:33.615Z,343.12
2018-08-16T13:34:33.597Z,337.50
2018-08-16T13:35:33.583Z,331.88
2018-08-16T13:36:33.856Z,326.25
2018-08-16T13:37:33.567Z,315.00
2018-08-16T13:38:33.717Z,298.12
2018-08-16T13:39:33.542Z,281.25
2018-08-16T13:40:33.697Z,258.75
2018-08-16T13:41:33.762Z,241.88
2018-08-16T13:42:33.515Z,219.38
2018-08-16T13:43:33.498Z,208.12
2018-08-16T13:44:33.529Z,196.88
2018-08-16T13:45:33.476Z,185.62
2018-08-16T13:46:33.635Z,180.00
2018-08-16T13:47:33.454Z,174.38
2018-08-16T13:48:33.617Z,168.75
2018-08-16T13:49:33.437Z,168.75
2018-08-16T13:50:33.553Z,163.12
2018-08-16T13:51:33.421Z,163.12
2018-08-16T13:52:33.405Z,163.12
2018-08-16T13:53:33.395Z,163.12
2018-08-16T13:54:33.382Z,163.12
2018-08-16T13:55:33.371Z,168.75
2018-08-16T13:56:33.979Z,168.75
2018-08-16T13:57:33.351Z,168.75
2018-08-16T13:58:33.337Z,168.75
2018-08-16T13:59:33.324Z,168.75
2018-08-16T14:00:33.311Z,168.75
2018-08-16T14:01:33.322Z,168.75
2018-08-16T14:02:33.295Z,168.75
2018-08-16T14:03:33.280Z,168.75
2018-08-16T14:04:33.272Z,168.75
2018-08-16T14:05:33.258Z,168.75
2018-08-16T14:06:33.260Z,168.75
2018-08-16T14:07:33.237Z,163.12
2018-08-16T14:08:33.224Z,163.12
2018-08-16T14:09:33.217Z,163.12
2018-08-16T14:10:33.203Z,168.75
2018-08-16T14:11:33.202Z,168.75
2018-08-16T14:12:33.182Z,168.75
2018-08-16T14:13:33.172Z,163.12
2018-08-16T14:14:33.162Z,157.50
2018-08-16T14:15:33.151Z,151.88
2018-08-16T14:16:33.153Z,151.88
2018-08-16T14:17:33.131Z,151.88
2018-08-16T14:18:33.146Z,151.88
2018-08-16T14:19:33.109Z,151.88
2018-08-16T14:20:33.096Z,151.88
2018-08-16T14:21:33.094Z,151.88
2018-08-16T14:22:33.076Z,146.25
2018-08-16T14:23:33.068Z,146.25
2018-08-16T14:24:33.053Z,151.88
2018-08-16T14:25:33.042Z,151.88
2018-08-16T14:26:33.041Z,151.88
2018-08-16T14:27:33.018Z,151.88
2018-08-16T14:28:33.008Z,151.88
2018-08-16T14:29:33.001Z,146.25
2018-08-16T14:30:32.986Z,146.25
2018-08-16T14:31:32.988Z,140.62
2018-08-16T14:32:33.042Z,140.62
2018-08-16T14:33:32.958Z,135.00
2018-08-16T14:34:32.949Z,135.00
2018-08-16T14:35:32.939Z,140.62
2018-08-16T14:36:32.934Z,157.50
2018-08-16T14:37:32.916Z,163.12
2018-08-16T14:38:32.958Z,168.75
2018-08-16T14:39:32.889Z,168.75
2018-08-16T14:40:32.878Z,168.75
2018-08-16T14:41:32.886Z,174.38
2018-08-16T14:42:32.860Z,174.38
2018-08-16T14:43:32.847Z,163.12
2018-08-16T14:44:32.837Z,151.88
2018-08-16T14:45:32.827Z,146.25
2018-08-16T14:46:32.831Z,140.62
2018-08-16T14:47:32.804Z,135.00
2018-08-16T14:48:32.795Z,135.00
2018-08-16T14:49:32.787Z,129.38
2018-08-16T14:50:32.772Z,123.75
2018-08-16T14:51:32.783Z,123.75
2018-08-16T14:52:32.750Z,123.75
2018-08-16T14:53:32.738Z,129.38
2018-08-16T14:54:32.728Z,123.75
2018-08-16T14:55:32.716Z,123.75
2018-08-16T14:56:32.720Z,123.75
2018-08-16T14:57:32.699Z,123.75
2018-08-16T14:58:32.686Z,123.75
2018-08-16T14:59:32.675Z,123.75
2018-08-16T15:00:32.663Z,123.75
2018-08-16T15:01:32.673Z,123.75
2018-08-16T15:02:32.649Z,123.75
2018-08-16T15:03:32.631Z,123.75
2018-08-16T15:04:32.620Z,123.75
2018-08-16T15:05:32.612Z,123.75
2018-08-16T15:06:32.620Z,123.75
2018-08-16T15:07:32.587Z,118.12
2018-08-16T15:08:32.576Z,123.75
2018-08-16T15:09:32.564Z,123.75
2018-08-16T15:10:32.559Z,129.38
2018-08-16T15:11:32.557Z,135.00
2018-08-16T15:12:32.536Z,129.38
2018-08-16T15:13:32.522Z,129.38
2018-08-16T15:14:32.509Z,135.00
2018-08-16T15:15:32.502Z,135.00
2018-08-16T15:16:32.498Z,135.00
2018-08-16T15:17:32.479Z,140.62
2018-08-16T15:18:32.468Z,140.62
2018-08-16T15:19:32.459Z,140.62
2018-08-16T15:20:32.448Z,135.00
2018-08-16T15:21:32.445Z,135.00
2018-08-16T15:22:32.425Z,135.00
2018-08-16T15:23:32.419Z,135.00
2018-08-16T15:24:32.402Z,135.00
2018-08-16T15:25:32.395Z,129.38
2018-08-16T15:26:32.396Z,129.38
2018-08-16T15:27:32.371Z,135.00
2018-08-16T15:28:32.362Z,135.00
2018-08-16T15:29:32.411Z,140.62
2018-08-16T15:30:32.337Z,135.00
2018-08-16T15:31:32.338Z,129.38
2018-08-16T15:32:32.326Z,123.75
2018-08-16T15:33:32.308Z,118.12
2018-08-16T15:34:32.296Z,118.12
2018-08-16T15:35:32.283Z,118.12
2018-08-16T15:36:32.275Z,123.75
2018-08-16T15:37:32.415Z,129.38
2018-08-16T15:38:32.252Z,135.00
2018-08-16T15:39:32.250Z,135.00
2018-08-16T15:40:32.229Z,129.38
2018-08-16T15:41:32.218Z,123.75
2018-08-16T15:42:32.231Z,112.50
2018-08-16T15:43:32.196Z,112.50
2018-08-16T15:44:32.186Z,112.50
2018-08-16T15:45:32.178Z,112.50
2018-08-16T15:46:32.165Z,123.75
2018-08-16T15:47:32.168Z,123.75
2018-08-16T15:48:32.142Z,129.38
2018-08-16T15:49:32.133Z,135.00
2018-08-16T15:50:32.122Z,135.00
2018-08-16T15:51:32.110Z,135.00
2018-08-16T15:52:32.111Z,135.00
2018-08-16T15:53:32.088Z,129.38
2018-08-16T15:54:32.081Z,123.75
2018-08-16T15:55:32.067Z,112.50
2018-08-16T15:56:32.058Z,106.88
2018-08-16T15:57:32.060Z,106.88
2018-08-16T15:58:32.037Z,106.88
2018-08-16T15:59:32.027Z,101.25
2018-08-16T16:00:32.013Z,101.25
2018-08-16T16:01:32.006Z,101.25
2018-08-16T16:02:32.005Z,101.25
2018-08-16T16:03:31.980Z,95.62
2018-08-16T16:04:31.973Z,95.62
2018-08-16T16:05:31.969Z,95.62
2018-08-16T16:06:32.022Z,101.25
2018-08-16T16:07:31.953Z,101.25
2018-08-16T16:08:31.929Z,101.25
2018-08-16T16:09:31.917Z,101.25
2018-08-16T16:10:31.907Z,95.62
2018-08-16T16:11:31.952Z,95.62
2018-08-16T16:12:31.892Z,95.62
2018-08-16T16:13:31.872Z,95.62
2018-08-16T16:14:31.861Z,95.62
2018-08-16T16:15:31.857Z,95.62
2018-08-16T16:16:31.841Z,95.62
2018-08-16T16:17:31.838Z,95.62
2018-08-16T16:18:31.818Z,95.62
2018-08-16T16:19:31.810Z,90.00
2018-08-16T16:20:31.795Z,90.00
2018-08-16T16:21:31.787Z,90.00
2018-08-16T16:22:31.786Z,90.00
2018-08-16T16:23:31.763Z,90.00
2018-08-16T16:24:31.753Z,90.00
2018-08-16T16:25:31.745Z,90.00
2018-08-16T16:26:31.733Z,90.00
2018-08-16T16:27:31.735Z,84.38
2018-08-16T16:28:31.712Z,84.38